Wingate, Texas
Current Conditions -  °F | °C
As of 7:58 AM on Monday 20 Oct 2014 (Local Time) from KDYS Reporting Station
Clear Clear  
Wind Chill: 57°   Ceiling: Unl
Heat Index: 57°   Visibility: 8mi
Dew Point: 55°   Wind: 3mph
Humidity: 93%   Direction: 150°SSE
Pressure: 30.08"   Gusts: NA
Location:  32.04°N, 100.11°W
Report Text: KDYS 201258Z AUTO 15003KT 8SM CLR 14/13 A3008 RMK AO2 SLP157 T01380127
Loading
Personal Weather Stations






























Interactive Weather Map
Tropical Storm Tracking
New forecast layout! Learn more

10-Day Weather Forecast

Advertisements
Track Severe Weather on mobile